Girard, Illinois
Current Conditions -  °F | °C
As of 4:15 AM on Thursday 29 Jan 2015 (Local Time) from K3LF Reporting Station
Clear Clear  
Wind Chill: 37°   Ceiling: Unl
Heat Index: 37°   Visibility: 10mi
Dew Point: 33°   Wind: 3mph
Humidity: 87%   Direction: 210°SSW
Pressure: 29.76"   Gusts: NA
Location:  39.45°N, 89.78°W
Report Text: K3LF 291015Z AUTO 21003KT 10SM CLR 03/01 A2976 RMK AO2 T00280008
Loading
Personal Weather Stations






























Interactive Weather Map New forecast layout! Learn more

10-Day Weather Forecast

Advertisements
Track Severe Weather on mobile